sensor_id;sensor_type;location;lat;lon;timestamp;P1;durP1;ratioP1;P2;durP2;ratioP2
70406;SDS011;57821;52.202;0.154;2024-03-07T00:00:09;68.47;;;27.02;;
70406;SDS011;57821;52.202;0.154;2024-03-07T00:02:45;74.43;;;28.42;;
70406;SDS011;57821;52.202;0.154;2024-03-07T00:05:18;68.75;;;27.58;;
70406;SDS011;57821;52.202;0.154;2024-03-07T00:07:47;68.40;;;27.60;;
70406;SDS011;57821;52.202;0.154;2024-03-07T00:10:14;67.97;;;28.00;;
70406;SDS011;57821;52.202;0.154;2024-03-07T00:12:42;61.25;;;26.35;;
70406;SDS011;57821;52.202;0.154;2024-03-07T00:15:10;65.00;;;26.02;;
70406;SDS011;57821;52.202;0.154;2024-03-07T00:17:38;58.78;;;22.50;;
70406;SDS011;57821;52.202;0.154;2024-03-07T00:20:06;57.50;;;22.52;;
70406;SDS011;57821;52.202;0.154;2024-03-07T00:22:36;65.43;;;23.92;;
70406;SDS011;57821;52.202;0.154;2024-03-07T00:25:03;61.25;;;25.27;;
70406;SDS011;57821;52.202;0.154;2024-03-07T00:27:33;72.57;;;26.55;;
70406;SDS011;57821;52.202;0.154;2024-03-07T00:30:00;73.32;;;26.80;;
70406;SDS011;57821;52.202;0.154;2024-03-07T00:32:27;76.15;;;27.85;;
70406;SDS011;57821;52.202;0.154;2024-03-07T00:34:56;73.47;;;27.45;;
70406;SDS011;57821;52.202;0.154;2024-03-07T00:37:23;63.40;;;24.55;;
70406;SDS011;57821;52.202;0.154;2024-03-07T00:39:51;65.82;;;23.75;;
70406;SDS011;57821;52.202;0.154;2024-03-07T00:42:18;75.07;;;24.58;;
70406;SDS011;57821;52.202;0.154;2024-03-07T00:44:44;77.45;;;25.83;;
70406;SDS011;57821;52.202;0.154;2024-03-07T00:47:11;79.10;;;25.92;;
70406;SDS011;57821;52.202;0.154;2024-03-07T00:49:38;68.28;;;24.45;;
70406;SDS011;57821;52.202;0.154;2024-03-07T00:52:05;68.10;;;24.70;;
70406;SDS011;57821;52.202;0.154;2024-03-07T00:54:31;72.43;;;26.13;;
70406;SDS011;57821;52.202;0.154;2024-03-07T00:56:58;69.20;;;25.83;;
70406;SDS011;57821;52.202;0.154;2024-03-07T00:59:26;72.13;;;26.75;;
70406;SDS011;57821;52.202;0.154;2024-03-07T01:01:52;73.97;;;26.38;;
70406;SDS011;57821;52.202;0.154;2024-03-07T01:04:20;72.65;;;27.08;;
70406;SDS011;57821;52.202;0.154;2024-03-07T01:06:46;68.40;;;27.33;;
70406;SDS011;57821;52.202;0.154;2024-03-07T01:09:13;69.57;;;26.08;;
70406;SDS011;57821;52.202;0.154;2024-03-07T01:11:42;64.70;;;25.48;;
70406;SDS011;57821;52.202;0.154;2024-03-07T01:14:11;74.07;;;27.23;;
70406;SDS011;57821;52.202;0.154;2024-03-07T01:16:37;67.78;;;26.48;;
70406;SDS011;57821;52.202;0.154;2024-03-07T01:19:04;72.15;;;27.60;;
70406;SDS011;57821;52.202;0.154;2024-03-07T01:21:35;74.03;;;28.15;;
70406;SDS011;57821;52.202;0.154;2024-03-07T01:24:04;66.40;;;26.98;;
70406;SDS011;57821;52.202;0.154;2024-03-07T01:26:32;67.05;;;27.13;;
70406;SDS011;57821;52.202;0.154;2024-03-07T01:29:00;69.45;;;27.40;;
70406;SDS011;57821;52.202;0.154;2024-03-07T01:31:27;73.50;;;29.10;;
70406;SDS011;57821;52.202;0.154;2024-03-07T01:33:54;72.50;;;28.90;;
70406;SDS011;57821;52.202;0.154;2024-03-07T01:36:21;66.13;;;28.77;;
70406;SDS011;57821;52.202;0.154;2024-03-07T01:38:48;68.50;;;29.38;;
70406;SDS011;57821;52.202;0.154;2024-03-07T01:41:16;72.68;;;30.60;;
70406;SDS011;57821;52.202;0.154;2024-03-07T01:43:43;68.93;;;30.40;;
70406;SDS011;57821;52.202;0.154;2024-03-07T01:46:11;67.18;;;30.35;;
70406;SDS011;57821;52.202;0.154;2024-03-07T01:48:38;71.15;;;33.40;;
70406;SDS011;57821;52.202;0.154;2024-03-07T01:51:07;69.47;;;32.33;;
70406;SDS011;57821;52.202;0.154;2024-03-07T01:53:35;68.15;;;31.65;;
70406;SDS011;57821;52.202;0.154;2024-03-07T01:56:02;73.63;;;32.58;;
70406;SDS011;57821;52.202;0.154;2024-03-07T01:58:30;76.60;;;32.90;;
70406;SDS011;57821;52.202;0.154;2024-03-07T02:01:00;73.18;;;32.67;;
70406;SDS011;57821;52.202;0.154;2024-03-07T02:03:27;72.97;;;32.70;;
70406;SDS011;57821;52.202;0.154;2024-03-07T02:06:04;71.75;;;32.88;;
70406;SDS011;57821;52.202;0.154;2024-03-07T02:08:30;75.18;;;34.83;;
70406;SDS011;57821;52.202;0.154;2024-03-07T02:10:58;83.80;;;36.22;;
70406;SDS011;57821;52.202;0.154;2024-03-07T02:13:25;75.50;;;32.80;;
70406;SDS011;57821;52.202;0.154;2024-03-07T02:15:52;68.70;;;31.05;;
70406;SDS011;57821;52.202;0.154;2024-03-07T02:18:19;65.47;;;30.00;;
70406;SDS011;57821;52.202;0.154;2024-03-07T02:20:46;63.88;;;29.42;;
70406;SDS011;57821;52.202;0.154;2024-03-07T02:23:13;68.97;;;31.17;;
70406;SDS011;57821;52.202;0.154;2024-03-07T02:25:41;70.05;;;32.20;;
70406;SDS011;57821;52.202;0.154;2024-03-07T02:28:07;69.70;;;30.45;;
70406;SDS011;57821;52.202;0.154;2024-03-07T02:30:34;74.05;;;32.80;;
70406;SDS011;57821;52.202;0.154;2024-03-07T02:33:01;70.57;;;30.08;;
70406;SDS011;57821;52.202;0.154;2024-03-07T02:35:34;72.70;;;32.97;;
70406;SDS011;57821;52.202;0.154;2024-03-07T02:38:02;72.55;;;32.17;;
70406;SDS011;57821;52.202;0.154;2024-03-07T02:40:29;68.97;;;30.65;;
70406;SDS011;57821;52.202;0.154;2024-03-07T02:42:56;65.00;;;29.13;;
70406;SDS011;57821;52.202;0.154;2024-03-07T02:45:24;66.82;;;28.25;;
70406;SDS011;57821;52.202;0.154;2024-03-07T02:47:51;67.68;;;28.40;;
70406;SDS011;57821;52.202;0.154;2024-03-07T02:50:20;66.78;;;29.95;;
70406;SDS011;57821;52.202;0.154;2024-03-07T02:52:48;72.38;;;30.80;;
70406;SDS011;57821;52.202;0.154;2024-03-07T02:55:16;67.30;;;27.15;;
70406;SDS011;57821;52.202;0.154;2024-03-07T02:57:42;73.68;;;29.13;;
70406;SDS011;57821;52.202;0.154;2024-03-07T03:00:09;73.57;;;27.80;;
70406;SDS011;57821;52.202;0.154;2024-03-07T03:02:47;74.07;;;27.95;;
70406;SDS011;57821;52.202;0.154;2024-03-07T03:05:15;68.57;;;25.30;;
70406;SDS011;57821;52.202;0.154;2024-03-07T03:07:42;69.15;;;25.83;;
70406;SDS011;57821;52.202;0.154;2024-03-07T03:10:10;67.50;;;26.45;;
70406;SDS011;57821;52.202;0.154;2024-03-07T03:12:37;61.33;;;23.38;;
70406;SDS011;57821;52.202;0.154;2024-03-07T03:15:04;55.67;;;21.73;;
70406;SDS011;57821;52.202;0.154;2024-03-07T03:17:33;58.53;;;21.95;;
70406;SDS011;57821;52.202;0.154;2024-03-07T03:20:00;58.10;;;21.33;;
70406;SDS011;57821;52.202;0.154;2024-03-07T03:22:27;61.08;;;21.80;;
70406;SDS011;57821;52.202;0.154;2024-03-07T03:24:53;57.20;;;21.40;;
70406;SDS011;57821;52.202;0.154;2024-03-07T03:27:21;51.42;;;21.30;;
70406;SDS011;57821;52.202;0.154;2024-03-07T03:29:48;55.40;;;21.38;;
70406;SDS011;57821;52.202;0.154;2024-03-07T03:32:17;52.33;;;20.67;;
70406;SDS011;57821;52.202;0.154;2024-03-07T03:34:44;53.78;;;20.27;;
70406;SDS011;57821;52.202;0.154;2024-03-07T03:37:10;53.50;;;20.58;;
70406;SDS011;57821;52.202;0.154;2024-03-07T03:39:38;60.05;;;22.63;;
70406;SDS011;57821;52.202;0.154;2024-03-07T03:42:04;60.17;;;22.38;;
70406;SDS011;57821;52.202;0.154;2024-03-07T03:44:33;58.33;;;21.08;;
70406;SDS011;57821;52.202;0.154;2024-03-07T03:47:00;65.88;;;22.63;;
70406;SDS011;57821;52.202;0.154;2024-03-07T03:49:28;54.45;;;21.00;;
70406;SDS011;57821;52.202;0.154;2024-03-07T03:51:55;50.92;;;19.25;;
70406;SDS011;57821;52.202;0.154;2024-03-07T03:54:21;46.90;;;20.63;;
70406;SDS011;57821;52.202;0.154;2024-03-07T03:56:49;44.13;;;18.55;;
70406;SDS011;57821;52.202;0.154;2024-03-07T03:59:15;47.20;;;18.02;;
70406;SDS011;57821;52.202;0.154;2024-03-07T04:01:42;44.42;;;18.27;;
70406;SDS011;57821;52.202;0.154;2024-03-07T04:04:10;39.88;;;17.52;;
70406;SDS011;57821;52.202;0.154;2024-03-07T04:06:37;43.00;;;18.20;;
70406;SDS011;57821;52.202;0.154;2024-03-07T04:09:03;37.95;;;17.50;;
70406;SDS011;57821;52.202;0.154;2024-03-07T04:11:31;45.58;;;18.63;;
70406;SDS011;57821;52.202;0.154;2024-03-07T04:13:59;42.38;;;18.08;;
70406;SDS011;57821;52.202;0.154;2024-03-07T04:16:25;45.03;;;18.92;;
70406;SDS011;57821;52.202;0.154;2024-03-07T04:18:53;42.95;;;18.60;;
70406;SDS011;57821;52.202;0.154;2024-03-07T04:21:19;39.67;;;18.80;;
70406;SDS011;57821;52.202;0.154;2024-03-07T04:23:46;47.38;;;20.30;;
70406;SDS011;57821;52.202;0.154;2024-03-07T04:26:13;48.67;;;18.45;;
70406;SDS011;57821;52.202;0.154;2024-03-07T04:28:40;46.40;;;18.63;;
70406;SDS011;57821;52.202;0.154;2024-03-07T04:31:07;41.10;;;17.65;;
70406;SDS011;57821;52.202;0.154;2024-03-07T04:33:33;44.33;;;19.05;;
70406;SDS011;57821;52.202;0.154;2024-03-07T04:36:00;38.83;;;17.48;;
70406;SDS011;57821;52.202;0.154;2024-03-07T04:38:29;36.95;;;16.33;;
70406;SDS011;57821;52.202;0.154;2024-03-07T04:40:57;41.60;;;17.05;;
70406;SDS011;57821;52.202;0.154;2024-03-07T04:43:23;35.08;;;17.08;;
70406;SDS011;57821;52.202;0.154;2024-03-07T04:45:52;38.17;;;15.98;;
70406;SDS011;57821;52.202;0.154;2024-03-07T04:48:19;40.05;;;16.70;;
70406;SDS011;57821;52.202;0.154;2024-03-07T04:50:46;41.20;;;16.55;;
70406;SDS011;57821;52.202;0.154;2024-03-07T04:53:13;37.20;;;16.88;;
70406;SDS011;57821;52.202;0.154;2024-03-07T04:55:46;43.85;;;18.05;;
70406;SDS011;57821;52.202;0.154;2024-03-07T04:58:13;36.30;;;16.35;;
70406;SDS011;57821;52.202;0.154;2024-03-07T05:00:40;36.28;;;16.38;;
70406;SDS011;57821;52.202;0.154;2024-03-07T05:03:06;37.17;;;15.68;;
70406;SDS011;57821;52.202;0.154;2024-03-07T05:05:33;41.03;;;15.18;;
70406;SDS011;57821;52.202;0.154;2024-03-07T05:08:00;36.08;;;14.25;;
70406;SDS011;57821;52.202;0.154;2024-03-07T05:10:26;38.08;;;15.65;;
70406;SDS011;57821;52.202;0.154;2024-03-07T05:12:56;35.58;;;14.77;;
70406;SDS011;57821;52.202;0.154;2024-03-07T05:15:25;35.47;;;14.85;;
70406;SDS011;57821;52.202;0.154;2024-03-07T05:17:52;35.60;;;15.52;;
70406;SDS011;57821;52.202;0.154;2024-03-07T05:20:19;30.35;;;13.38;;
70406;SDS011;57821;52.202;0.154;2024-03-07T05:22:46;38.63;;;15.77;;
70406;SDS011;57821;52.202;0.154;2024-03-07T05:25:19;37.97;;;16.23;;
70406;SDS011;57821;52.202;0.154;2024-03-07T05:27:48;40.72;;;16.35;;
70406;SDS011;57821;52.202;0.154;2024-03-07T05:30:18;41.20;;;17.25;;
70406;SDS011;57821;52.202;0.154;2024-03-07T05:32:45;37.83;;;16.58;;
70406;SDS011;57821;52.202;0.154;2024-03-07T05:35:12;41.80;;;18.15;;
70406;SDS011;57821;52.202;0.154;2024-03-07T05:37:39;38.15;;;17.45;;
70406;SDS011;57821;52.202;0.154;2024-03-07T05:40:13;39.72;;;18.50;;
70406;SDS011;57821;52.202;0.154;2024-03-07T05:42:40;42.38;;;19.88;;
70406;SDS011;57821;52.202;0.154;2024-03-07T05:45:07;43.75;;;20.02;;
70406;SDS011;57821;52.202;0.154;2024-03-07T05:47:34;50.90;;;21.15;;
70406;SDS011;57821;52.202;0.154;2024-03-07T05:50:01;44.20;;;20.17;;
70406;SDS011;57821;52.202;0.154;2024-03-07T05:52:28;45.15;;;20.40;;
70406;SDS011;57821;52.202;0.154;2024-03-07T05:54:54;45.25;;;19.42;;
70406;SDS011;57821;52.202;0.154;2024-03-07T05:57:21;47.88;;;19.83;;
70406;SDS011;57821;52.202;0.154;2024-03-07T05:59:47;38.00;;;18.02;;
70406;SDS011;57821;52.202;0.154;2024-03-07T06:02:14;41.45;;;17.90;;
70406;SDS011;57821;52.202;0.154;2024-03-07T06:04:42;44.58;;;19.70;;
70406;SDS011;57821;52.202;0.154;2024-03-07T06:07:10;45.40;;;19.65;;
70406;SDS011;57821;52.202;0.154;2024-03-07T06:09:37;42.92;;;19.65;;
70406;SDS011;57821;52.202;0.154;2024-03-07T06:12:04;51.08;;;21.48;;
70406;SDS011;57821;52.202;0.154;2024-03-07T06:14:48;56.13;;;24.63;;
70406;SDS011;57821;52.202;0.154;2024-03-07T06:17:15;58.95;;;25.40;;
70406;SDS011;57821;52.202;0.154;2024-03-07T06:19:45;58.50;;;25.52;;
70406;SDS011;57821;52.202;0.154;2024-03-07T06:22:13;62.50;;;25.55;;
70406;SDS011;57821;52.202;0.154;2024-03-07T06:24:40;60.35;;;24.75;;
70406;SDS011;57821;52.202;0.154;2024-03-07T06:27:08;57.03;;;24.55;;
70406;SDS011;57821;52.202;0.154;2024-03-07T06:29:42;62.55;;;25.75;;
70406;SDS011;57821;52.202;0.154;2024-03-07T06:32:09;62.13;;;25.42;;
70406;SDS011;57821;52.202;0.154;2024-03-07T06:34:38;70.10;;;27.08;;
70406;SDS011;57821;52.202;0.154;2024-03-07T06:37:04;67.97;;;26.98;;
70406;SDS011;57821;52.202;0.154;2024-03-07T06:39:32;74.65;;;28.05;;
70406;SDS011;57821;52.202;0.154;2024-03-07T06:41:59;80.70;;;30.58;;
70406;SDS011;57821;52.202;0.154;2024-03-07T06:44:27;78.75;;;28.77;;
70406;SDS011;57821;52.202;0.154;2024-03-07T06:46:53;76.75;;;29.50;;
70406;SDS011;57821;52.202;0.154;2024-03-07T06:49:20;77.85;;;29.25;;
70406;SDS011;57821;52.202;0.154;2024-03-07T06:51:47;78.63;;;30.05;;
70406;SDS011;57821;52.202;0.154;2024-03-07T06:54:13;84.07;;;30.15;;
70406;SDS011;57821;52.202;0.154;2024-03-07T06:56:40;86.65;;;31.20;;
70406;SDS011;57821;52.202;0.154;2024-03-07T06:59:10;82.00;;;31.30;;
70406;SDS011;57821;52.202;0.154;2024-03-07T07:01:36;82.53;;;31.38;;
70406;SDS011;57821;52.202;0.154;2024-03-07T07:04:03;89.35;;;32.65;;
70406;SDS011;57821;52.202;0.154;2024-03-07T07:06:30;77.40;;;31.70;;
70406;SDS011;57821;52.202;0.154;2024-03-07T07:08:57;86.07;;;33.30;;
70406;SDS011;57821;52.202;0.154;2024-03-07T07:11:25;92.35;;;33.58;;
70406;SDS011;57821;52.202;0.154;2024-03-07T07:13:59;90.22;;;35.63;;
70406;SDS011;57821;52.202;0.154;2024-03-07T07:16:25;94.38;;;35.10;;
70406;SDS011;57821;52.202;0.154;2024-03-07T07:18:53;97.60;;;37.67;;
70406;SDS011;57821;52.202;0.154;2024-03-07T07:21:20;95.20;;;36.20;;
70406;SDS011;57821;52.202;0.154;2024-03-07T07:23:47;95.43;;;36.15;;
70406;SDS011;57821;52.202;0.154;2024-03-07T07:26:14;92.15;;;36.13;;
70406;SDS011;57821;52.202;0.154;2024-03-07T07:28:41;102.00;;;38.72;;
70406;SDS011;57821;52.202;0.154;2024-03-07T07:31:08;100.00;;;37.53;;
70406;SDS011;57821;52.202;0.154;2024-03-07T07:33:35;98.93;;;40.58;;
70406;SDS011;57821;52.202;0.154;2024-03-07T07:36:02;103.90;;;38.88;;
70406;SDS011;57821;52.202;0.154;2024-03-07T07:38:30;103.85;;;39.75;;
70406;SDS011;57821;52.202;0.154;2024-03-07T07:40:58;103.57;;;39.03;;
70406;SDS011;57821;52.202;0.154;2024-03-07T07:43:25;95.88;;;39.53;;
70406;SDS011;57821;52.202;0.154;2024-03-07T07:46:07;102.47;;;41.03;;
70406;SDS011;57821;52.202;0.154;2024-03-07T07:48:34;99.75;;;40.17;;
70406;SDS011;57821;52.202;0.154;2024-03-07T07:51:00;98.00;;;38.92;;
70406;SDS011;57821;52.202;0.154;2024-03-07T07:53:27;106.00;;;40.83;;
70406;SDS011;57821;52.202;0.154;2024-03-07T07:55:54;112.25;;;41.58;;
70406;SDS011;57821;52.202;0.154;2024-03-07T07:58:21;113.47;;;42.70;;
70406;SDS011;57821;52.202;0.154;2024-03-07T08:00:47;108.53;;;41.78;;
70406;SDS011;57821;52.202;0.154;2024-03-07T08:03:15;100.47;;;42.28;;
70406;SDS011;57821;52.202;0.154;2024-03-07T08:05:44;110.00;;;43.47;;
70406;SDS011;57821;52.202;0.154;2024-03-07T08:08:16;112.05;;;42.03;;
70406;SDS011;57821;52.202;0.154;2024-03-07T08:10:45;110.75;;;45.13;;
70406;SDS011;57821;52.202;0.154;2024-03-07T08:13:13;113.63;;;44.20;;
70406;SDS011;57821;52.202;0.154;2024-03-07T08:15:40;121.15;;;45.97;;
70406;SDS011;57821;52.202;0.154;2024-03-07T08:18:08;114.45;;;44.75;;
70406;SDS011;57821;52.202;0.154;2024-03-07T08:20:37;117.03;;;44.10;;
70406;SDS011;57821;52.202;0.154;2024-03-07T08:23:05;123.00;;;45.42;;
70406;SDS011;57821;52.202;0.154;2024-03-07T08:25:42;118.63;;;44.45;;
70406;SDS011;57821;52.202;0.154;2024-03-07T08:28:08;117.25;;;44.63;;
70406;SDS011;57821;52.202;0.154;2024-03-07T08:30:35;115.15;;;44.03;;
70406;SDS011;57821;52.202;0.154;2024-03-07T08:33:02;106.80;;;43.85;;
70406;SDS011;57821;52.202;0.154;2024-03-07T08:35:32;122.70;;;46.03;;
70406;SDS011;57821;52.202;0.154;2024-03-07T08:38:00;110.60;;;44.58;;
70406;SDS011;57821;52.202;0.154;2024-03-07T08:40:27;119.05;;;47.00;;
70406;SDS011;57821;52.202;0.154;2024-03-07T08:43:00;121.50;;;47.97;;
70406;SDS011;57821;52.202;0.154;2024-03-07T08:45:28;115.38;;;46.15;;
70406;SDS011;57821;52.202;0.154;2024-03-07T08:47:56;113.43;;;44.33;;
70406;SDS011;57821;52.202;0.154;2024-03-07T08:50:25;113.75;;;48.40;;
70406;SDS011;57821;52.202;0.154;2024-03-07T08:52:52;112.55;;;45.53;;
70406;SDS011;57821;52.202;0.154;2024-03-07T08:55:20;110.38;;;44.97;;
70406;SDS011;57821;52.202;0.154;2024-03-07T08:57:49;108.10;;;46.67;;
70406;SDS011;57821;52.202;0.154;2024-03-07T09:00:16;112.05;;;48.28;;
70406;SDS011;57821;52.202;0.154;2024-03-07T09:02:56;107.78;;;47.40;;
70406;SDS011;57821;52.202;0.154;2024-03-07T09:05:30;112.38;;;47.30;;
70406;SDS011;57821;52.202;0.154;2024-03-07T09:08:01;108.00;;;46.47;;
70406;SDS011;57821;52.202;0.154;2024-03-07T09:10:28;106.75;;;46.78;;
70406;SDS011;57821;52.202;0.154;2024-03-07T09:12:58;106.68;;;46.42;;
70406;SDS011;57821;52.202;0.154;2024-03-07T09:15:25;105.30;;;46.75;;
70406;SDS011;57821;52.202;0.154;2024-03-07T09:17:53;107.07;;;47.28;;
70406;SDS011;57821;52.202;0.154;2024-03-07T09:20:20;102.68;;;45.92;;
70406;SDS011;57821;52.202;0.154;2024-03-07T09:22:47;100.82;;;46.83;;
70406;SDS011;57821;52.202;0.154;2024-03-07T09:25:16;106.15;;;45.83;;
70406;SDS011;57821;52.202;0.154;2024-03-07T09:27:45;102.07;;;47.20;;
70406;SDS011;57821;52.202;0.154;2024-03-07T09:30:12;103.45;;;47.90;;
70406;SDS011;57821;52.202;0.154;2024-03-07T09:32:41;103.22;;;48.70;;
70406;SDS011;57821;52.202;0.154;2024-03-07T09:35:10;97.28;;;46.78;;
70406;SDS011;57821;52.202;0.154;2024-03-07T09:37:41;96.75;;;47.65;;
70406;SDS011;57821;52.202;0.154;2024-03-07T09:40:09;98.28;;;47.80;;
70406;SDS011;57821;52.202;0.154;2024-03-07T09:42:41;101.40;;;45.78;;
70406;SDS011;57821;52.202;0.154;2024-03-07T09:45:15;93.50;;;46.00;;
70406;SDS011;57821;52.202;0.154;2024-03-07T09:47:45;95.25;;;46.88;;
70406;SDS011;57821;52.202;0.154;2024-03-07T09:50:17;91.10;;;45.58;;
70406;SDS011;57821;52.202;0.154;2024-03-07T09:52:46;91.10;;;46.40;;
70406;SDS011;57821;52.202;0.154;2024-03-07T09:55:18;89.97;;;46.63;;
70406;SDS011;57821;52.202;0.154;2024-03-07T09:57:46;84.93;;;43.78;;
70406;SDS011;57821;52.202;0.154;2024-03-07T10:00:17;97.18;;;46.42;;
70406;SDS011;57821;52.202;0.154;2024-03-07T10:02:59;87.22;;;44.10;;
70406;SDS011;57821;52.202;0.154;2024-03-07T10:05:30;84.07;;;43.78;;
70406;SDS011;57821;52.202;0.154;2024-03-07T10:07:58;89.50;;;44.45;;
70406;SDS011;57821;52.202;0.154;2024-03-07T10:10:25;83.95;;;42.65;;
70406;SDS011;57821;52.202;0.154;2024-03-07T10:12:53;83.18;;;43.00;;
70406;SDS011;57821;52.202;0.154;2024-03-07T10:15:20;80.32;;;43.10;;
70406;SDS011;57821;52.202;0.154;2024-03-07T10:17:49;77.65;;;42.30;;
70406;SDS011;57821;52.202;0.154;2024-03-07T10:20:17;76.13;;;40.83;;
70406;SDS011;57821;52.202;0.154;2024-03-07T10:22:47;75.63;;;39.40;;
70406;SDS011;57821;52.202;0.154;2024-03-07T10:25:18;75.55;;;39.15;;
70406;SDS011;57821;52.202;0.154;2024-03-07T10:27:50;78.88;;;40.83;;
70406;SDS011;57821;52.202;0.154;2024-03-07T10:30:17;74.72;;;37.70;;
70406;SDS011;57821;52.202;0.154;2024-03-07T10:32:48;68.15;;;38.58;;
70406;SDS011;57821;52.202;0.154;2024-03-07T10:35:21;64.75;;;37.28;;
70406;SDS011;57821;52.202;0.154;2024-03-07T10:37:49;65.85;;;36.10;;
70406;SDS011;57821;52.202;0.154;2024-03-07T10:40:16;68.63;;;38.35;;
70406;SDS011;57821;52.202;0.154;2024-03-07T10:42:47;69.78;;;37.03;;
70406;SDS011;57821;52.202;0.154;2024-03-07T10:45:21;67.13;;;36.25;;
70406;SDS011;57821;52.202;0.154;2024-03-07T10:47:49;59.42;;;33.40;;
70406;SDS011;57821;52.202;0.154;2024-03-07T10:53:39;54.85;;;31.40;;
70406;SDS011;57821;52.202;0.154;2024-03-07T10:59:20;53.20;;;30.98;;
70406;SDS011;57821;52.202;0.154;2024-03-07T11:04:53;53.95;;;31.77;;
70406;SDS011;57821;52.202;0.154;2024-03-07T11:07:22;52.92;;;30.23;;
70406;SDS011;57821;52.202;0.154;2024-03-07T11:09:51;53.80;;;31.10;;
70406;SDS011;57821;52.202;0.154;2024-03-07T11:12:22;53.78;;;31.73;;
70406;SDS011;57821;52.202;0.154;2024-03-07T11:14:50;53.05;;;30.58;;
70406;SDS011;57821;52.202;0.154;2024-03-07T11:17:20;51.45;;;29.35;;
70406;SDS011;57821;52.202;0.154;2024-03-07T11:19:48;51.55;;;27.92;;
70406;SDS011;57821;52.202;0.154;2024-03-07T11:22:31;40.70;;;24.00;;
70406;SDS011;57821;52.202;0.154;2024-03-07T11:25:01;40.83;;;24.65;;
70406;SDS011;57821;52.202;0.154;2024-03-07T11:27:36;44.78;;;24.35;;
70406;SDS011;57821;52.202;0.154;2024-03-07T11:30:06;40.83;;;23.80;;
70406;SDS011;57821;52.202;0.154;2024-03-07T11:32:40;43.95;;;24.98;;
70406;SDS011;57821;52.202;0.154;2024-03-07T11:35:11;39.70;;;23.55;;
70406;SDS011;57821;52.202;0.154;2024-03-07T11:37:42;38.15;;;22.23;;
70406;SDS011;57821;52.202;0.154;2024-03-07T11:40:59;36.13;;;21.90;;
70406;SDS011;57821;52.202;0.154;2024-03-07T11:43:00;36.92;;;22.25;;
70406;SDS011;57821;52.202;0.154;2024-03-07T11:45:31;36.75;;;22.63;;
70406;SDS011;57821;52.202;0.154;2024-03-07T11:48:11;37.30;;;22.70;;
70406;SDS011;57821;52.202;0.154;2024-03-07T11:50:39;37.75;;;22.45;;
70406;SDS011;57821;52.202;0.154;2024-03-07T11:53:07;40.05;;;23.02;;
70406;SDS011;57821;52.202;0.154;2024-03-07T11:55:38;37.60;;;23.73;;
70406;SDS011;57821;52.202;0.154;2024-03-07T11:58:12;37.05;;;22.77;;
70406;SDS011;57821;52.202;0.154;2024-03-07T12:00:40;38.13;;;22.10;;
70406;SDS011;57821;52.202;0.154;2024-03-07T12:03:11;37.10;;;22.70;;
70406;SDS011;57821;52.202;0.154;2024-03-07T12:05:40;36.25;;;22.92;;
70406;SDS011;57821;52.202;0.154;2024-03-07T12:08:08;39.33;;;22.52;;
70406;SDS011;57821;52.202;0.154;2024-03-07T12:10:37;36.00;;;20.48;;
70406;SDS011;57821;52.202;0.154;2024-03-07T12:13:05;34.80;;;21.10;;
70406;SDS011;57821;52.202;0.154;2024-03-07T12:15:33;33.58;;;20.58;;
70406;SDS011;57821;52.202;0.154;2024-03-07T12:18:02;33.85;;;20.05;;
70406;SDS011;57821;52.202;0.154;2024-03-07T12:20:29;38.58;;;19.52;;
70406;SDS011;57821;52.202;0.154;2024-03-07T12:23:03;37.83;;;20.08;;
70406;SDS011;57821;52.202;0.154;2024-03-07T12:25:35;36.80;;;21.02;;
70406;SDS011;57821;52.202;0.154;2024-03-07T12:28:06;36.13;;;21.73;;
70406;SDS011;57821;52.202;0.154;2024-03-07T12:33:13;38.08;;;22.50;;
70406;SDS011;57821;52.202;0.154;2024-03-07T12:35:40;39.95;;;22.83;;
70406;SDS011;57821;52.202;0.154;2024-03-07T12:38:10;40.40;;;24.35;;
70406;SDS011;57821;52.202;0.154;2024-03-07T12:40:37;43.72;;;24.65;;
70406;SDS011;57821;52.202;0.154;2024-03-07T12:43:17;39.45;;;23.77;;
70406;SDS011;57821;52.202;0.154;2024-03-07T12:45:49;38.35;;;21.83;;
70406;SDS011;57821;52.202;0.154;2024-03-07T12:48:20;37.45;;;21.83;;
70406;SDS011;57821;52.202;0.154;2024-03-07T12:50:51;35.78;;;21.73;;
70406;SDS011;57821;52.202;0.154;2024-03-07T12:53:22;36.03;;;20.80;;
70406;SDS011;57821;52.202;0.154;2024-03-07T12:55:50;34.45;;;20.98;;
70406;SDS011;57821;52.202;0.154;2024-03-07T12:58:18;34.53;;;21.42;;
70406;SDS011;57821;52.202;0.154;2024-03-07T13:00:53;35.70;;;19.95;;
70406;SDS011;57821;52.202;0.154;2024-03-07T13:03:23;34.28;;;21.05;;
70406;SDS011;57821;52.202;0.154;2024-03-07T13:05:57;35.15;;;21.25;;
70406;SDS011;57821;52.202;0.154;2024-03-07T13:08:28;39.10;;;21.17;;
70406;SDS011;57821;52.202;0.154;2024-03-07T13:10:58;35.33;;;20.83;;
70406;SDS011;57821;52.202;0.154;2024-03-07T13:13:28;37.22;;;21.02;;
70406;SDS011;57821;52.202;0.154;2024-03-07T13:15:55;35.58;;;21.15;;
70406;SDS011;57821;52.202;0.154;2024-03-07T13:18:22;38.85;;;21.90;;
70406;SDS011;57821;52.202;0.154;2024-03-07T13:20:50;38.50;;;22.33;;
70406;SDS011;57821;52.202;0.154;2024-03-07T13:23:17;35.65;;;21.67;;
70406;SDS011;57821;52.202;0.154;2024-03-07T13:25:43;32.75;;;21.08;;
70406;SDS011;57821;52.202;0.154;2024-03-07T13:28:11;33.83;;;20.23;;
70406;SDS011;57821;52.202;0.154;2024-03-07T13:30:43;31.95;;;19.65;;
70406;SDS011;57821;52.202;0.154;2024-03-07T13:33:10;33.83;;;20.70;;
70406;SDS011;57821;52.202;0.154;2024-03-07T13:35:38;36.78;;;19.98;;
70406;SDS011;57821;52.202;0.154;2024-03-07T13:38:06;37.25;;;19.98;;
70406;SDS011;57821;52.202;0.154;2024-03-07T13:40:34;34.15;;;19.42;;
70406;SDS011;57821;52.202;0.154;2024-03-07T13:43:05;27.23;;;15.13;;
70406;SDS011;57821;52.202;0.154;2024-03-07T13:45:34;34.70;;;20.70;;
70406;SDS011;57821;52.202;0.154;2024-03-07T13:48:06;35.47;;;20.95;;
70406;SDS011;57821;52.202;0.154;2024-03-07T13:50:34;34.40;;;20.73;;
70406;SDS011;57821;52.202;0.154;2024-03-07T13:53:21;35.53;;;21.92;;
70406;SDS011;57821;52.202;0.154;2024-03-07T13:55:51;36.67;;;21.25;;
70406;SDS011;57821;52.202;0.154;2024-03-07T14:04:13;39.65;;;24.15;;
70406;SDS011;57821;52.202;0.154;2024-03-07T14:15:31;42.42;;;25.55;;
70406;SDS011;57821;52.202;0.154;2024-03-07T14:21:49;43.08;;;25.55;;
70406;SDS011;57821;52.202;0.154;2024-03-07T14:32:54;47.83;;;27.60;;
70406;SDS011;57821;52.202;0.154;2024-03-07T14:35:28;44.90;;;27.50;;
70406;SDS011;57821;52.202;0.154;2024-03-07T14:40:42;41.35;;;26.67;;
70406;SDS011;57821;52.202;0.154;2024-03-07T14:43:15;50.83;;;25.58;;
70406;SDS011;57821;52.202;0.154;2024-03-07T14:45:43;42.03;;;25.15;;
70406;SDS011;57821;52.202;0.154;2024-03-07T14:48:10;40.33;;;24.20;;
70406;SDS011;57821;52.202;0.154;2024-03-07T14:50:41;34.80;;;21.67;;
70406;SDS011;57821;52.202;0.154;2024-03-07T14:53:11;36.00;;;20.20;;
70406;SDS011;57821;52.202;0.154;2024-03-07T14:55:40;42.55;;;21.13;;
70406;SDS011;57821;52.202;0.154;2024-03-07T14:58:07;34.20;;;20.30;;
70406;SDS011;57821;52.202;0.154;2024-03-07T15:00:39;32.22;;;20.38;;
70406;SDS011;57821;52.202;0.154;2024-03-07T15:03:23;35.05;;;19.80;;
70406;SDS011;57821;52.202;0.154;2024-03-07T15:05:51;36.67;;;20.25;;
70406;SDS011;57821;52.202;0.154;2024-03-07T15:08:18;34.10;;;20.17;;
70406;SDS011;57821;52.202;0.154;2024-03-07T15:10:52;28.27;;;17.17;;